sensor_id;sensor_type;location;lat;lon;timestamp;temperature;humidity
35970;DHT22;22448;51.298;6.430;2023-09-18T00:00:34;19.30;99.90
35970;DHT22;22448;51.298;6.430;2023-09-18T00:03:02;19.30;99.90
35970;DHT22;22448;51.298;6.430;2023-09-18T00:05:30;19.30;99.90
35970;DHT22;22448;51.298;6.430;2023-09-18T00:07:58;19.40;99.90
35970;DHT22;22448;51.298;6.430;2023-09-18T00:10:26;19.40;99.90
35970;DHT22;22448;51.298;6.430;2023-09-18T00:12:53;19.40;99.90
35970;DHT22;22448;51.298;6.430;2023-09-18T00:15:20;19.40;99.90
35970;DHT22;22448;51.298;6.430;2023-09-18T00:17:47;19.40;99.90
35970;DHT22;22448;51.298;6.430;2023-09-18T00:20:15;19.50;99.90
35970;DHT22;22448;51.298;6.430;2023-09-18T00:22:44;19.50;99.90
35970;DHT22;22448;51.298;6.430;2023-09-18T00:25:11;19.50;99.90
35970;DHT22;22448;51.298;6.430;2023-09-18T00:27:38;19.50;99.90
35970;DHT22;22448;51.298;6.430;2023-09-18T00:30:06;19.50;99.90
35970;DHT22;22448;51.298;6.430;2023-09-18T00:32:33;19.50;99.90
35970;DHT22;22448;51.298;6.430;2023-09-18T00:35:01;19.40;99.90
35970;DHT22;22448;51.298;6.430;2023-09-18T00:37:29;19.50;99.90
35970;DHT22;22448;51.298;6.430;2023-09-18T00:39:56;19.50;99.90
35970;DHT22;22448;51.298;6.430;2023-09-18T00:42:23;19.40;99.90
35970;DHT22;22448;51.298;6.430;2023-09-18T00:44:50;19.40;99.90
35970;DHT22;22448;51.298;6.430;2023-09-18T00:47:17;19.40;99.90
35970;DHT22;22448;51.298;6.430;2023-09-18T00:49:48;19.40;99.90
35970;DHT22;22448;51.298;6.430;2023-09-18T00:52:15;19.40;99.90
35970;DHT22;22448;51.298;6.430;2023-09-18T00:54:44;19.30;99.90
35970;DHT22;22448;51.298;6.430;2023-09-18T00:57:13;19.30;99.90
35970;DHT22;22448;51.298;6.430;2023-09-18T00:59:40;19.30;99.90
35970;DHT22;22448;51.298;6.430;2023-09-18T01:02:08;19.30;99.90
35970;DHT22;22448;51.298;6.430;2023-09-18T01:04:37;19.30;99.90
35970;DHT22;22448;51.298;6.430;2023-09-18T01:07:04;19.30;99.90
35970;DHT22;22448;51.298;6.430;2023-09-18T01:09:32;19.30;99.90
35970;DHT22;22448;51.298;6.430;2023-09-18T01:12:08;19.30;99.90
35970;DHT22;22448;51.298;6.430;2023-09-18T01:17:12;19.20;99.90
35970;DHT22;22448;51.298;6.430;2023-09-18T01:22:16;19.20;99.90
35970;DHT22;22448;51.298;6.430;2023-09-18T01:24:45;19.20;99.90
35970;DHT22;22448;51.298;6.430;2023-09-18T01:27:16;19.20;99.90
35970;DHT22;22448;51.298;6.430;2023-09-18T01:29:47;19.30;99.90
35970;DHT22;22448;51.298;6.430;2023-09-18T01:32:15;19.30;99.90
35970;DHT22;22448;51.298;6.430;2023-09-18T01:34:50;19.30;99.90
35970;DHT22;22448;51.298;6.430;2023-09-18T01:37:20;19.30;99.90
35970;DHT22;22448;51.298;6.430;2023-09-18T01:39:50;19.30;99.90
35970;DHT22;22448;51.298;6.430;2023-09-18T01:42:17;19.30;99.90
35970;DHT22;22448;51.298;6.430;2023-09-18T01:44:46;19.40;99.90
35970;DHT22;22448;51.298;6.430;2023-09-18T01:47:18;19.40;99.90
35970;DHT22;22448;51.298;6.430;2023-09-18T01:49:47;19.40;99.90
35970;DHT22;22448;51.298;6.430;2023-09-18T01:52:14;19.50;99.90
35970;DHT22;22448;51.298;6.430;2023-09-18T01:54:41;19.50;99.90
35970;DHT22;22448;51.298;6.430;2023-09-18T01:57:08;19.50;99.90
35970;DHT22;22448;51.298;6.430;2023-09-18T01:59:35;19.50;99.90
35970;DHT22;22448;51.298;6.430;2023-09-18T02:02:05;19.40;99.90
35970;DHT22;22448;51.298;6.430;2023-09-18T02:04:35;19.40;99.90
35970;DHT22;22448;51.298;6.430;2023-09-18T02:07:19;19.50;99.90
35970;DHT22;22448;51.298;6.430;2023-09-18T02:09:46;19.40;99.90
35970;DHT22;22448;51.298;6.430;2023-09-18T02:12:13;19.50;99.90
35970;DHT22;22448;51.298;6.430;2023-09-18T02:14:45;19.50;99.90
35970;DHT22;22448;51.298;6.430;2023-09-18T02:17:12;19.60;99.90
35970;DHT22;22448;51.298;6.430;2023-09-18T02:19:40;19.60;99.90
35970;DHT22;22448;51.298;6.430;2023-09-18T02:22:07;19.60;99.90
35970;DHT22;22448;51.298;6.430;2023-09-18T02:24:34;19.70;99.90
35970;DHT22;22448;51.298;6.430;2023-09-18T02:27:04;19.70;99.90
35970;DHT22;22448;51.298;6.430;2023-09-18T02:29:32;19.80;99.90
35970;DHT22;22448;51.298;6.430;2023-09-18T02:31:59;19.80;99.90
35970;DHT22;22448;51.298;6.430;2023-09-18T02:34:26;19.90;99.90
35970;DHT22;22448;51.298;6.430;2023-09-18T02:36:54;19.90;99.90
35970;DHT22;22448;51.298;6.430;2023-09-18T02:39:21;19.90;99.90
35970;DHT22;22448;51.298;6.430;2023-09-18T02:41:49;19.90;99.90
35970;DHT22;22448;51.298;6.430;2023-09-18T02:44:16;19.90;99.90
35970;DHT22;22448;51.298;6.430;2023-09-18T02:46:44;19.90;99.90
35970;DHT22;22448;51.298;6.430;2023-09-18T02:49:12;19.90;99.90
35970;DHT22;22448;51.298;6.430;2023-09-18T02:51:39;19.90;99.90
35970;DHT22;22448;51.298;6.430;2023-09-18T02:54:06;19.90;99.90
35970;DHT22;22448;51.298;6.430;2023-09-18T02:56:33;19.90;99.90
35970;DHT22;22448;51.298;6.430;2023-09-18T02:59:00;20.00;99.90
35970;DHT22;22448;51.298;6.430;2023-09-18T03:01:27;20.00;99.90
35970;DHT22;22448;51.298;6.430;2023-09-18T03:03:54;19.90;99.90
35970;DHT22;22448;51.298;6.430;2023-09-18T03:06:21;19.90;99.90
35970;DHT22;22448;51.298;6.430;2023-09-18T03:08:48;19.90;99.90
35970;DHT22;22448;51.298;6.430;2023-09-18T03:11:17;19.90;99.90
35970;DHT22;22448;51.298;6.430;2023-09-18T03:13:45;19.90;99.90
35970;DHT22;22448;51.298;6.430;2023-09-18T03:16:17;19.90;99.90
35970;DHT22;22448;51.298;6.430;2023-09-18T03:18:46;19.80;99.90
35970;DHT22;22448;51.298;6.430;2023-09-18T03:21:13;19.80;99.90
35970;DHT22;22448;51.298;6.430;2023-09-18T03:23:40;19.80;99.90
35970;DHT22;22448;51.298;6.430;2023-09-18T03:26:07;19.70;99.90
35970;DHT22;22448;51.298;6.430;2023-09-18T03:28:34;19.80;99.90
35970;DHT22;22448;51.298;6.430;2023-09-18T03:31:01;19.80;99.90
35970;DHT22;22448;51.298;6.430;2023-09-18T03:33:28;19.80;99.90
35970;DHT22;22448;51.298;6.430;2023-09-18T03:35:55;19.80;99.90
35970;DHT22;22448;51.298;6.430;2023-09-18T03:38:27;19.80;99.90
35970;DHT22;22448;51.298;6.430;2023-09-18T03:40:59;19.80;99.90
35970;DHT22;22448;51.298;6.430;2023-09-18T03:43:27;19.80;99.90
35970;DHT22;22448;51.298;6.430;2023-09-18T03:45:54;19.80;99.90
35970;DHT22;22448;51.298;6.430;2023-09-18T03:48:22;19.80;99.90
35970;DHT22;22448;51.298;6.430;2023-09-18T03:50:49;19.80;99.90
35970;DHT22;22448;51.298;6.430;2023-09-18T03:53:16;19.80;99.90
35970;DHT22;22448;51.298;6.430;2023-09-18T03:55:45;19.80;99.90
35970;DHT22;22448;51.298;6.430;2023-09-18T03:58:12;19.70;99.90
35970;DHT22;22448;51.298;6.430;2023-09-18T04:00:39;19.70;99.90
35970;DHT22;22448;51.298;6.430;2023-09-18T04:03:06;19.70;99.90
35970;DHT22;22448;51.298;6.430;2023-09-18T04:05:34;19.60;99.90
35970;DHT22;22448;51.298;6.430;2023-09-18T04:08:01;19.60;99.90
35970;DHT22;22448;51.298;6.430;2023-09-18T04:10:29;19.50;99.90
35970;DHT22;22448;51.298;6.430;2023-09-18T04:12:55;19.50;99.90
35970;DHT22;22448;51.298;6.430;2023-09-18T04:15:23;19.50;99.90
35970;DHT22;22448;51.298;6.430;2023-09-18T04:17:51;19.50;99.90
35970;DHT22;22448;51.298;6.430;2023-09-18T04:20:18;19.50;99.90
35970;DHT22;22448;51.298;6.430;2023-09-18T04:22:47;19.40;99.90
35970;DHT22;22448;51.298;6.430;2023-09-18T04:25:18;19.30;99.90
35970;DHT22;22448;51.298;6.430;2023-09-18T04:27:47;19.30;99.90
35970;DHT22;22448;51.298;6.430;2023-09-18T04:30:17;19.30;99.90
35970;DHT22;22448;51.298;6.430;2023-09-18T04:32:47;19.20;99.90
35970;DHT22;22448;51.298;6.430;2023-09-18T04:35:14;19.10;99.90
35970;DHT22;22448;51.298;6.430;2023-09-18T04:37:42;19.10;99.90
35970;DHT22;22448;51.298;6.430;2023-09-18T04:40:10;19.00;99.90
35970;DHT22;22448;51.298;6.430;2023-09-18T04:42:39;19.00;99.90
35970;DHT22;22448;51.298;6.430;2023-09-18T04:45:07;19.00;99.90
35970;DHT22;22448;51.298;6.430;2023-09-18T04:47:35;18.90;99.90
35970;DHT22;22448;51.298;6.430;2023-09-18T04:50:02;18.90;99.90
35970;DHT22;22448;51.298;6.430;2023-09-18T04:52:37;18.90;99.90
35970;DHT22;22448;51.298;6.430;2023-09-18T04:55:05;18.80;99.90
35970;DHT22;22448;51.298;6.430;2023-09-18T04:57:35;18.80;99.90
35970;DHT22;22448;51.298;6.430;2023-09-18T05:00:03;18.80;99.90
35970;DHT22;22448;51.298;6.430;2023-09-18T05:02:45;18.70;99.90
35970;DHT22;22448;51.298;6.430;2023-09-18T05:05:12;18.70;99.90
35970;DHT22;22448;51.298;6.430;2023-09-18T05:07:41;18.70;99.90
35970;DHT22;22448;51.298;6.430;2023-09-18T05:10:09;18.70;99.90
35970;DHT22;22448;51.298;6.430;2023-09-18T05:12:39;18.70;99.90
35970;DHT22;22448;51.298;6.430;2023-09-18T05:15:07;18.70;99.90
35970;DHT22;22448;51.298;6.430;2023-09-18T05:17:48;18.70;99.90
35970;DHT22;22448;51.298;6.430;2023-09-18T05:20:19;18.70;99.90
35970;DHT22;22448;51.298;6.430;2023-09-18T05:22:46;18.70;99.90
35970;DHT22;22448;51.298;6.430;2023-09-18T05:25:13;18.70;99.90
35970;DHT22;22448;51.298;6.430;2023-09-18T05:27:43;18.70;99.90
35970;DHT22;22448;51.298;6.430;2023-09-18T05:30:12;18.70;99.90
35970;DHT22;22448;51.298;6.430;2023-09-18T05:32:41;18.70;99.90
35970;DHT22;22448;51.298;6.430;2023-09-18T05:35:08;18.70;99.90
35970;DHT22;22448;51.298;6.430;2023-09-18T05:37:38;18.70;99.90
35970;DHT22;22448;51.298;6.430;2023-09-18T05:40:07;18.70;99.90
35970;DHT22;22448;51.298;6.430;2023-09-18T05:42:42;18.70;99.90
35970;DHT22;22448;51.298;6.430;2023-09-18T05:45:14;18.70;99.90
35970;DHT22;22448;51.298;6.430;2023-09-18T05:47:41;18.70;99.90
35970;DHT22;22448;51.298;6.430;2023-09-18T05:50:11;18.70;99.90
35970;DHT22;22448;51.298;6.430;2023-09-18T05:52:46;18.70;99.90
35970;DHT22;22448;51.298;6.430;2023-09-18T05:55:14;18.70;99.90
35970;DHT22;22448;51.298;6.430;2023-09-18T05:57:42;18.70;99.90
35970;DHT22;22448;51.298;6.430;2023-09-18T06:00:09;18.70;99.90
35970;DHT22;22448;51.298;6.430;2023-09-18T06:02:43;18.80;99.90
35970;DHT22;22448;51.298;6.430;2023-09-18T06:05:11;18.80;99.90
35970;DHT22;22448;51.298;6.430;2023-09-18T06:07:38;18.80;99.90
35970;DHT22;22448;51.298;6.430;2023-09-18T06:10:06;18.80;99.90
35970;DHT22;22448;51.298;6.430;2023-09-18T06:12:33;18.90;99.90
35970;DHT22;22448;51.298;6.430;2023-09-18T06:15:00;18.90;99.90
35970;DHT22;22448;51.298;6.430;2023-09-18T06:17:27;19.00;99.90
35970;DHT22;22448;51.298;6.430;2023-09-18T06:19:55;19.00;99.90
35970;DHT22;22448;51.298;6.430;2023-09-18T06:22:22;19.00;99.90
35970;DHT22;22448;51.298;6.430;2023-09-18T06:24:49;19.10;99.90
35970;DHT22;22448;51.298;6.430;2023-09-18T06:27:16;19.10;99.90
35970;DHT22;22448;51.298;6.430;2023-09-18T06:29:45;19.10;99.90
35970;DHT22;22448;51.298;6.430;2023-09-18T06:32:13;19.10;99.90
35970;DHT22;22448;51.298;6.430;2023-09-18T06:34:40;19.20;99.90
35970;DHT22;22448;51.298;6.430;2023-09-18T06:37:10;19.20;99.90
35970;DHT22;22448;51.298;6.430;2023-09-18T06:39:39;19.30;99.90
35970;DHT22;22448;51.298;6.430;2023-09-18T06:42:06;19.30;99.90
35970;DHT22;22448;51.298;6.430;2023-09-18T06:44:33;19.40;99.90
35970;DHT22;22448;51.298;6.430;2023-09-18T06:47:01;19.50;99.90
35970;DHT22;22448;51.298;6.430;2023-09-18T06:49:28;19.60;99.90
35970;DHT22;22448;51.298;6.430;2023-09-18T06:51:55;19.60;99.90
35970;DHT22;22448;51.298;6.430;2023-09-18T06:54:22;19.70;99.90
35970;DHT22;22448;51.298;6.430;2023-09-18T06:56:49;19.80;99.90
35970;DHT22;22448;51.298;6.430;2023-09-18T06:59:17;19.90;99.90
35970;DHT22;22448;51.298;6.430;2023-09-18T07:01:44;20.00;99.90
35970;DHT22;22448;51.298;6.430;2023-09-18T07:04:11;20.00;99.90
35970;DHT22;22448;51.298;6.430;2023-09-18T07:06:38;20.10;99.90
35970;DHT22;22448;51.298;6.430;2023-09-18T07:09:06;20.20;99.90
35970;DHT22;22448;51.298;6.430;2023-09-18T07:11:34;20.20;99.90
35970;DHT22;22448;51.298;6.430;2023-09-18T07:14:01;20.20;99.90
35970;DHT22;22448;51.298;6.430;2023-09-18T07:16:32;20.20;99.90
35970;DHT22;22448;51.298;6.430;2023-09-18T07:19:01;20.20;99.90
35970;DHT22;22448;51.298;6.430;2023-09-18T07:21:31;20.20;99.90
35970;DHT22;22448;51.298;6.430;2023-09-18T07:23:59;20.20;99.90
35970;DHT22;22448;51.298;6.430;2023-09-18T07:26:26;20.10;99.90
35970;DHT22;22448;51.298;6.430;2023-09-18T07:28:53;20.10;99.90
35970;DHT22;22448;51.298;6.430;2023-09-18T07:31:20;20.10;99.90
35970;DHT22;22448;51.298;6.430;2023-09-18T07:33:47;20.10;99.90
35970;DHT22;22448;51.298;6.430;2023-09-18T07:36:15;20.10;99.90
35970;DHT22;22448;51.298;6.430;2023-09-18T07:38:42;20.20;99.90
35970;DHT22;22448;51.298;6.430;2023-09-18T07:41:10;20.20;99.90
35970;DHT22;22448;51.298;6.430;2023-09-18T07:43:37;20.20;99.90
35970;DHT22;22448;51.298;6.430;2023-09-18T07:46:05;20.20;99.90
35970;DHT22;22448;51.298;6.430;2023-09-18T07:48:33;20.20;99.90
35970;DHT22;22448;51.298;6.430;2023-09-18T07:51:01;20.20;99.90
35970;DHT22;22448;51.298;6.430;2023-09-18T07:53:28;20.30;99.90
35970;DHT22;22448;51.298;6.430;2023-09-18T07:55:56;20.20;99.90
35970;DHT22;22448;51.298;6.430;2023-09-18T07:58:25;20.20;99.90
35970;DHT22;22448;51.298;6.430;2023-09-18T08:00:57;20.30;99.90
35970;DHT22;22448;51.298;6.430;2023-09-18T08:03:28;20.40;99.90
35970;DHT22;22448;51.298;6.430;2023-09-18T08:05:55;20.40;99.90
35970;DHT22;22448;51.298;6.430;2023-09-18T08:08:23;20.40;99.90
35970;DHT22;22448;51.298;6.430;2023-09-18T08:10:52;20.40;99.90
35970;DHT22;22448;51.298;6.430;2023-09-18T08:13:19;20.40;99.90
35970;DHT22;22448;51.298;6.430;2023-09-18T08:15:46;20.40;99.90
35970;DHT22;22448;51.298;6.430;2023-09-18T08:18:14;20.50;99.90
35970;DHT22;22448;51.298;6.430;2023-09-18T08:20:42;20.60;99.90
35970;DHT22;22448;51.298;6.430;2023-09-18T08:23:10;20.70;99.90
35970;DHT22;22448;51.298;6.430;2023-09-18T08:25:38;20.90;99.90
35970;DHT22;22448;51.298;6.430;2023-09-18T08:28:07;21.00;99.90
35970;DHT22;22448;51.298;6.430;2023-09-18T08:30:35;21.10;99.90
35970;DHT22;22448;51.298;6.430;2023-09-18T08:33:04;21.20;99.90
35970;DHT22;22448;51.298;6.430;2023-09-18T08:35:32;21.10;99.90
35970;DHT22;22448;51.298;6.430;2023-09-18T08:37:59;21.00;99.90
35970;DHT22;22448;51.298;6.430;2023-09-18T08:40:27;20.90;99.90
35970;DHT22;22448;51.298;6.430;2023-09-18T08:42:55;20.90;99.90
35970;DHT22;22448;51.298;6.430;2023-09-18T08:45:27;20.90;99.90
35970;DHT22;22448;51.298;6.430;2023-09-18T08:47:59;21.00;99.90
35970;DHT22;22448;51.298;6.430;2023-09-18T08:50:28;21.00;99.90
35970;DHT22;22448;51.298;6.430;2023-09-18T08:52:55;21.20;99.90
35970;DHT22;22448;51.298;6.430;2023-09-18T08:55:24;21.20;99.90
35970;DHT22;22448;51.298;6.430;2023-09-18T08:57:52;21.20;99.90
35970;DHT22;22448;51.298;6.430;2023-09-18T09:00:20;21.40;99.90
35970;DHT22;22448;51.298;6.430;2023-09-18T09:02:47;21.50;99.90
35970;DHT22;22448;51.298;6.430;2023-09-18T09:05:18;21.50;99.90
35970;DHT22;22448;51.298;6.430;2023-09-18T09:07:45;21.50;99.90
35970;DHT22;22448;51.298;6.430;2023-09-18T09:10:12;21.60;99.90
35970;DHT22;22448;51.298;6.430;2023-09-18T09:12:57;21.50;99.90
35970;DHT22;22448;51.298;6.430;2023-09-18T09:15:29;21.60;99.90
35970;DHT22;22448;51.298;6.430;2023-09-18T09:18:07;21.70;99.90
35970;DHT22;22448;51.298;6.430;2023-09-18T09:20:35;21.70;99.90
35970;DHT22;22448;51.298;6.430;2023-09-18T09:23:04;21.70;99.90
35970;DHT22;22448;51.298;6.430;2023-09-18T09:25:32;21.70;99.90
35970;DHT22;22448;51.298;6.430;2023-09-18T09:28:02;21.70;99.90
35970;DHT22;22448;51.298;6.430;2023-09-18T09:30:34;21.80;99.90
35970;DHT22;22448;51.298;6.430;2023-09-18T09:33:04;21.90;99.90
35970;DHT22;22448;51.298;6.430;2023-09-18T09:35:34;21.90;99.90
35970;DHT22;22448;51.298;6.430;2023-09-18T09:38:08;22.10;99.90
35970;DHT22;22448;51.298;6.430;2023-09-18T09:40:39;22.30;99.90
35970;DHT22;22448;51.298;6.430;2023-09-18T09:43:08;22.40;99.90
35970;DHT22;22448;51.298;6.430;2023-09-18T09:45:36;22.40;99.90
35970;DHT22;22448;51.298;6.430;2023-09-18T09:48:05;22.30;99.90
35970;DHT22;22448;51.298;6.430;2023-09-18T09:50:43;22.30;99.90
35970;DHT22;22448;51.298;6.430;2023-09-18T09:53:13;22.40;99.90
35970;DHT22;22448;51.298;6.430;2023-09-18T09:55:41;22.70;99.90
35970;DHT22;22448;51.298;6.430;2023-09-18T09:58:09;23.00;99.90
35970;DHT22;22448;51.298;6.430;2023-09-18T10:00:46;23.40;99.90
35970;DHT22;22448;51.298;6.430;2023-09-18T10:03:18;23.80;99.90
35970;DHT22;22448;51.298;6.430;2023-09-18T10:05:47;23.90;99.90
35970;DHT22;22448;51.298;6.430;2023-09-18T10:08:19;24.00;99.90
35970;DHT22;22448;51.298;6.430;2023-09-18T10:10:49;24.20;99.90
35970;DHT22;22448;51.298;6.430;2023-09-18T10:16:19;24.40;99.90
35970;DHT22;22448;51.298;6.430;2023-09-18T10:19:17;24.40;99.90
35970;DHT22;22448;51.298;6.430;2023-09-18T10:22:00;24.50;99.90
35970;DHT22;22448;51.298;6.430;2023-09-18T10:24:34;24.60;99.90
35970;DHT22;22448;51.298;6.430;2023-09-18T10:27:04;24.60;99.90
35970;DHT22;22448;51.298;6.430;2023-09-18T10:29:34;24.60;99.90
35970;DHT22;22448;51.298;6.430;2023-09-18T10:32:06;24.60;99.90
35970;DHT22;22448;51.298;6.430;2023-09-18T10:34:36;24.60;99.90
35970;DHT22;22448;51.298;6.430;2023-09-18T10:37:04;24.60;99.90
35970;DHT22;22448;51.298;6.430;2023-09-18T10:39:38;24.60;99.90
35970;DHT22;22448;51.298;6.430;2023-09-18T10:42:08;24.60;99.90
35970;DHT22;22448;51.298;6.430;2023-09-18T10:44:36;24.80;99.90
35970;DHT22;22448;51.298;6.430;2023-09-18T10:47:09;24.90;99.90
35970;DHT22;22448;51.298;6.430;2023-09-18T10:49:37;25.00;99.90
35970;DHT22;22448;51.298;6.430;2023-09-18T10:52:04;24.90;99.90
35970;DHT22;22448;51.298;6.430;2023-09-18T10:54:32;25.00;99.90
35970;DHT22;22448;51.298;6.430;2023-09-18T10:57:00;25.00;99.90
35970;DHT22;22448;51.298;6.430;2023-09-18T10:59:29;25.00;99.90
35970;DHT22;22448;51.298;6.430;2023-09-18T11:02:05;25.10;99.90
35970;DHT22;22448;51.298;6.430;2023-09-18T11:04:34;25.20;99.90
35970;DHT22;22448;51.298;6.430;2023-09-18T11:07:03;25.20;99.90
35970;DHT22;22448;51.298;6.430;2023-09-18T11:09:41;25.10;99.90
35970;DHT22;22448;51.298;6.430;2023-09-18T11:12:44;24.80;99.90
35970;DHT22;22448;51.298;6.430;2023-09-18T11:18:02;24.40;99.90
35970;DHT22;22448;51.298;6.430;2023-09-18T11:20:35;24.30;99.90
35970;DHT22;22448;51.298;6.430;2023-09-18T11:23:16;24.40;99.90
35970;DHT22;22448;51.298;6.430;2023-09-18T11:25:45;24.90;99.90
35970;DHT22;22448;51.298;6.430;2023-09-18T11:28:25;25.20;99.90
35970;DHT22;22448;51.298;6.430;2023-09-18T11:30:54;25.50;99.90
35970;DHT22;22448;51.298;6.430;2023-09-18T11:33:33;25.60;99.90
35970;DHT22;22448;51.298;6.430;2023-09-18T11:36:06;25.80;99.90
35970;DHT22;22448;51.298;6.430;2023-09-18T11:38:35;25.70;99.90
35970;DHT22;22448;51.298;6.430;2023-09-18T11:41:28;25.80;99.90
35970;DHT22;22448;51.298;6.430;2023-09-18T11:47:17;26.10;99.90
35970;DHT22;22448;51.298;6.430;2023-09-18T11:49:51;26.10;99.90
35970;DHT22;22448;51.298;6.430;2023-09-18T11:52:28;26.30;99.90
35970;DHT22;22448;51.298;6.430;2023-09-18T11:54:57;26.40;99.90
35970;DHT22;22448;51.298;6.430;2023-09-18T11:57:24;26.40;99.90
35970;DHT22;22448;51.298;6.430;2023-09-18T11:59:52;26.40;99.90
35970;DHT22;22448;51.298;6.430;2023-09-18T12:02:30;26.40;99.90
35970;DHT22;22448;51.298;6.430;2023-09-18T12:05:14;25.90;99.90
35970;DHT22;22448;51.298;6.430;2023-09-18T12:07:43;25.70;99.90
35970;DHT22;22448;51.298;6.430;2023-09-18T12:10:14;25.60;99.90
35970;DHT22;22448;51.298;6.430;2023-09-18T12:12:44;25.60;99.90
35970;DHT22;22448;51.298;6.430;2023-09-18T12:15:12;25.60;99.90
35970;DHT22;22448;51.298;6.430;2023-09-18T12:17:39;25.70;99.90
35970;DHT22;22448;51.298;6.430;2023-09-18T12:20:06;25.60;99.90
35970;DHT22;22448;51.298;6.430;2023-09-18T12:22:34;25.60;99.90
35970;DHT22;22448;51.298;6.430;2023-09-18T12:25:11;25.70;99.90
35970;DHT22;22448;51.298;6.430;2023-09-18T12:27:42;25.80;99.90
35970;DHT22;22448;51.298;6.430;2023-09-18T12:30:11;26.00;99.90
35970;DHT22;22448;51.298;6.430;2023-09-18T12:32:39;26.10;99.90
35970;DHT22;22448;51.298;6.430;2023-09-18T12:35:07;26.10;99.90
35970;DHT22;22448;51.298;6.430;2023-09-18T12:37:35;26.20;99.90
35970;DHT22;22448;51.298;6.430;2023-09-18T12:40:06;26.30;99.90
35970;DHT22;22448;51.298;6.430;2023-09-18T12:42:38;26.20;99.90
35970;DHT22;22448;51.298;6.430;2023-09-18T12:45:08;26.20;99.90
35970;DHT22;22448;51.298;6.430;2023-09-18T12:47:35;26.30;99.90
35970;DHT22;22448;51.298;6.430;2023-09-18T12:50:06;26.30;99.90
35970;DHT22;22448;51.298;6.430;2023-09-18T12:52:34;26.20;99.90
35970;DHT22;22448;51.298;6.430;2023-09-18T12:55:01;26.10;99.90
35970;DHT22;22448;51.298;6.430;2023-09-18T12:57:32;26.10;99.90
35970;DHT22;22448;51.298;6.430;2023-09-18T12:59:59;26.30;99.90
35970;DHT22;22448;51.298;6.430;2023-09-18T13:02:26;26.50;99.90
35970;DHT22;22448;51.298;6.430;2023-09-18T13:04:57;26.50;99.90
35970;DHT22;22448;51.298;6.430;2023-09-18T13:07:26;26.20;99.90
35970;DHT22;22448;51.298;6.430;2023-09-18T13:10:01;26.00;99.90
35970;DHT22;22448;51.298;6.430;2023-09-18T13:12:46;26.10;99.90
35970;DHT22;22448;51.298;6.430;2023-09-18T13:15:13;26.30;99.90
35970;DHT22;22448;51.298;6.430;2023-09-18T13:17:45;26.30;99.90
35970;DHT22;22448;51.298;6.430;2023-09-18T13:20:27;26.40;99.90
35970;DHT22;22448;51.298;6.430;2023-09-18T13:23:00;26.40;99.90
35970;DHT22;22448;51.298;6.430;2023-09-18T13:25:32;26.40;99.90
35970;DHT22;22448;51.298;6.430;2023-09-18T13:28:08;26.30;99.90
35970;DHT22;22448;51.298;6.430;2023-09-18T13:30:37;26.00;99.90
35970;DHT22;22448;51.298;6.430;2023-09-18T13:33:12;26.00;99.90
35970;DHT22;22448;51.298;6.430;2023-09-18T13:35:41;26.10;99.90
35970;DHT22;22448;51.298;6.430;2023-09-18T13:38:09;26.20;99.90
35970;DHT22;22448;51.298;6.430;2023-09-18T13:40:39;26.10;99.90
35970;DHT22;22448;51.298;6.430;2023-09-18T13:43:08;26.10;99.90
35970;DHT22;22448;51.298;6.430;2023-09-18T13:45:35;26.00;99.90
35970;DHT22;22448;51.298;6.430;2023-09-18T13:48:04;26.10;99.90
35970;DHT22;22448;51.298;6.430;2023-09-18T13:50:32;26.10;99.90
35970;DHT22;22448;51.298;6.430;2023-09-18T13:53:00;26.10;99.90
35970;DHT22;22448;51.298;6.430;2023-09-18T13:55:31;26.00;99.90
35970;DHT22;22448;51.298;6.430;2023-09-18T13:57:59;26.00;99.90
35970;DHT22;22448;51.298;6.430;2023-09-18T14:00:26;26.00;99.90
35970;DHT22;22448;51.298;6.430;2023-09-18T14:02:53;26.00;99.90
35970;DHT22;22448;51.298;6.430;2023-09-18T14:05:21;25.90;99.90
35970;DHT22;22448;51.298;6.430;2023-09-18T14:07:48;26.00;99.90
35970;DHT22;22448;51.298;6.430;2023-09-18T14:10:17;26.00;99.90
35970;DHT22;22448;51.298;6.430;2023-09-18T14:12:48;25.90;99.90
35970;DHT22;22448;51.298;6.430;2023-09-18T14:15:15;25.90;99.90
35970;DHT22;22448;51.298;6.430;2023-09-18T14:17:42;25.90;99.90
35970;DHT22;22448;51.298;6.430;2023-09-18T14:20:09;25.70;99.90
35970;DHT22;22448;51.298;6.430;2023-09-18T14:22:37;25.60;99.90
35970;DHT22;22448;51.298;6.430;2023-09-18T14:25:05;25.60;99.90
35970;DHT22;22448;51.298;6.430;2023-09-18T14:27:34;25.50;99.90
35970;DHT22;22448;51.298;6.430;2023-09-18T14:30:03;25.30;99.90
35970;DHT22;22448;51.298;6.430;2023-09-18T14:32:35;25.30;99.90
35970;DHT22;22448;51.298;6.430;2023-09-18T14:35:04;25.20;99.90
35970;DHT22;22448;51.298;6.430;2023-09-18T14:37:36;25.10;99.90
35970;DHT22;22448;51.298;6.430;2023-09-18T14:40:04;25.00;99.90
35970;DHT22;22448;51.298;6.430;2023-09-18T14:42:31;24.90;99.90
35970;DHT22;22448;51.298;6.430;2023-09-18T14:44:58;24.80;99.90
35970;DHT22;22448;51.298;6.430;2023-09-18T14:47:28;24.80;99.90
35970;DHT22;22448;51.298;6.430;2023-09-18T14:49:55;24.70;99.90
35970;DHT22;22448;51.298;6.430;2023-09-18T14:52:22;24.70;99.90
35970;DHT22;22448;51.298;6.430;2023-09-18T14:54:53;24.60;99.90
35970;DHT22;22448;51.298;6.430;2023-09-18T14:57:20;24.40;99.90
35970;DHT22;22448;51.298;6.430;2023-09-18T14:59:47;24.40;99.90
35970;DHT22;22448;51.298;6.430;2023-09-18T15:02:15;24.30;99.90
35970;DHT22;22448;51.298;6.430;2023-09-18T15:04:45;24.10;99.90
35970;DHT22;22448;51.298;6.430;2023-09-18T15:07:12;24.00;99.90
35970;DHT22;22448;51.298;6.430;2023-09-18T15:09:39;23.90;99.90
35970;DHT22;22448;51.298;6.430;2023-09-18T15:12:07;23.90;99.90
35970;DHT22;22448;51.298;6.430;2023-09-18T15:14:35;23.80;99.90
35970;DHT22;22448;51.298;6.430;2023-09-18T15:17:03;23.80;99.90
35970;DHT22;22448;51.298;6.430;2023-09-18T15:19:31;23.70;99.90
35970;DHT22;22448;51.298;6.430;2023-09-18T15:21:58;23.60;99.90
35970;DHT22;22448;51.298;6.430;2023-09-18T15:24:27;23.60;99.90
35970;DHT22;22448;51.298;6.430;2023-09-18T15:26:54;23.50;99.90
35970;DHT22;22448;51.298;6.430;2023-09-18T15:29:21;23.50;99.90
35970;DHT22;22448;51.298;6.430;2023-09-18T15:31:49;23.60;99.90
35970;DHT22;22448;51.298;6.430;2023-09-18T15:34:16;23.70;99.90
35970;DHT22;22448;51.298;6.430;2023-09-18T15:36:44;23.60;99.90
35970;DHT22;22448;51.298;6.430;2023-09-18T15:39:11;23.60;99.90
35970;DHT22;22448;51.298;6.430;2023-09-18T15:41:40;23.60;99.90
35970;DHT22;22448;51.298;6.430;2023-09-18T15:44:07;23.50;99.90
35970;DHT22;22448;51.298;6.430;2023-09-18T15:46:37;23.40;99.90
35970;DHT22;22448;51.298;6.430;2023-09-18T15:49:04;23.40;99.90
35970;DHT22;22448;51.298;6.430;2023-09-18T15:51:31;23.40;99.90
35970;DHT22;22448;51.298;6.430;2023-09-18T15:53:59;23.40;99.90
35970;DHT22;22448;51.298;6.430;2023-09-18T15:56:26;23.30;99.90